Time;durP1;ratioP1;P1;durP2;ratioP2;P2;SDS_P1;SDS_P2;PMS_P1;PMS_P2;Temp;Humidity;BMP_temperature;BMP_pressure;BME280_temperature;BME280_humidity;BME280_pressure;Samples;Min_cycle;Max_cycle;Signal;HPM_P1;HPM_P2
2022/12/11 00:02:18;;;;;;;45.53;22.80;;;3.20;99.90;;;;;;5053637;28;20124;-69
2022/12/11 00:04:44;;;;;;;48.13;23.67;;;3.20;99.90;;;;;;5053646;28;20057;-69
2022/12/11 00:07:09;;;;;;;45.97;22.60;;;3.20;99.90;;;;;;5053658;28;20033;-68
2022/12/11 00:09:36;;;;;;;47.63;22.85;;;3.20;99.90;;;;;;5053499;28;20429;-69
2022/12/11 00:12:01;;;;;;;49.75;23.75;;;3.10;99.90;;;;;;5053422;28;20450;-69
2022/12/11 00:14:28;;;;;;;48.88;22.60;;;3.10;99.90;;;;;;5053211;28;20029;-71
2022/12/11 00:16:54;;;;;;;44.60;21.17;;;3.10;99.90;;;;;;5052889;28;20033;-68
2022/12/11 00:19:20;;;;;;;46.92;22.30;;;3.20;99.90;;;;;;5052709;28;20052;-69
2022/12/11 00:21:45;;;;;;;41.47;21.13;;;3.10;99.90;;;;;;5052913;28;20127;-69
2022/12/11 00:24:11;;;;;;;44.33;21.42;;;3.10;99.90;;;;;;5052793;28;20033;-71
2022/12/11 00:26:38;;;;;;;45.08;22.42;;;3.20;99.90;;;;;;5053205;28;20098;-68
2022/12/11 00:29:03;;;;;;;45.95;21.73;;;3.10;99.90;;;;;;5053132;28;20028;-69
2022/12/11 00:31:29;;;;;;;43.53;20.33;;;3.10;99.90;;;;;;5052732;28;20535;-70
2022/12/11 00:33:55;;;;;;;39.28;19.90;;;3.10;99.90;;;;;;5053452;28;20056;-69
2022/12/11 00:36:23;;;;;;;46.67;21.73;;;3.00;99.90;;;;;;5052509;28;20110;-69
2022/12/11 00:38:49;;;;;;;41.08;21.50;;;3.00;99.90;;;;;;5052760;28;20021;-70
2022/12/11 00:41:17;;;;;;;40.33;21.73;;;3.00;99.90;;;;;;5051908;28;20497;-69
2022/12/11 00:43:43;;;;;;;40.80;20.60;;;3.00;99.90;;;;;;5053194;28;20458;-69
2022/12/11 00:46:09;;;;;;;41.30;21.00;;;3.00;99.90;;;;;;5052666;28;20032;-69
2022/12/11 00:48:35;;;;;;;42.00;21.08;;;3.00;99.90;;;;;;5051820;28;20122;-70
2022/12/11 00:51:01;;;;;;;44.50;21.48;;;3.00;99.90;;;;;;5052291;28;20493;-69
2022/12/11 00:53:26;;;;;;;41.35;20.85;;;2.90;99.90;;;;;;5052143;28;20397;-69
2022/12/11 00:55:52;;;;;;;41.00;20.48;;;2.90;99.90;;;;;;5052580;28;20035;-70
2022/12/11 00:58:18;;;;;;;39.60;21.17;;;2.90;99.90;;;;;;5052050;28;20028;-69
2022/12/11 01:00:43;;;;;;;43.25;20.85;;;2.90;99.90;;;;;;5052319;28;20041;-69
2022/12/11 01:03:12;;;;;;;44.47;22.77;;;2.80;99.90;;;;;;5052521;28;20029;-69
2022/12/11 01:05:38;;;;;;;39.97;22.15;;;2.80;99.90;;;;;;5052004;28;20021;-69
2022/12/11 01:08:04;;;;;;;42.63;21.25;;;2.80;99.90;;;;;;5052001;28;20534;-69
2022/12/11 01:10:31;;;;;;;41.17;20.25;;;2.70;99.90;;;;;;5051251;28;20059;-70
2022/12/11 01:13:03;;;;;;;39.20;20.45;;;2.70;99.90;;;;;;5052513;28;20032;-69
2022/12/11 01:15:34;;;;;;;36.42;19.13;;;2.70;99.90;;;;;;5052079;28;20109;-69
2022/12/11 01:17:59;;;;;;;;;;;2.70;99.90;;;;;;5052994;28;20025;-69
2022/12/11 01:20:27;;;;;;;33.92;17.80;;;2.70;99.90;;;;;;5051868;28;19912;-69
2022/12/11 01:22:59;;;;;;;33.20;18.00;;;2.60;99.90;;;;;;5052032;28;20021;-69
2022/12/11 01:25:27;;;;;;;35.10;18.25;;;2.60;99.90;;;;;;5052246;28;20475;-70
2022/12/11 01:27:54;;;;;;;39.83;20.02;;;2.60;99.90;;;;;;5052244;28;20489;-70
2022/12/11 01:30:22;;;;;;;36.72;20.05;;;2.60;99.90;;;;;;5051308;28;20389;-70
2022/12/11 01:32:48;;;;;;;37.90;19.88;;;2.60;99.90;;;;;;5050833;28;20033;-69
2022/12/11 01:35:14;;;;;;;39.58;20.67;;;2.60;99.90;;;;;;5052304;28;20035;-70
2022/12/11 01:37:40;;;;;;;38.35;19.77;;;2.50;99.90;;;;;;5052270;28;20047;-69
2022/12/11 01:40:07;;;;;;;37.15;19.92;;;2.50;99.90;;;;;;5052079;28;20033;-68
2022/12/11 01:42:34;;;;;;;36.03;19.48;;;2.50;99.90;;;;;;5050597;28;20056;-69
2022/12/11 01:45:21;;;;;;;38.55;20.10;;;2.50;99.90;;;;;;5052223;28;20021;-70
2022/12/11 01:47:54;;;;;;;40.42;18.83;;;2.60;99.90;;;;;;5052220;28;20464;-69
2022/12/11 01:50:20;;;;;;;37.60;18.92;;;2.60;99.90;;;;;;5051844;28;20461;-70
2022/12/11 01:52:47;;;;;;;38.90;19.15;;;2.60;99.90;;;;;;5051857;28;20103;-69
2022/12/11 01:55:13;;;;;;;36.17;19.05;;;2.60;99.90;;;;;;5052020;28;20104;-69
2022/12/11 01:57:42;;;;;;;38.60;20.20;;;2.60;99.90;;;;;;5051692;28;20029;-69
2022/12/11 02:00:09;;;;;;;40.83;21.00;;;2.60;99.90;;;;;;5051865;28;20346;-69
2022/12/11 02:02:35;;;;;;;34.50;19.60;;;2.60;99.90;;;;;;5051540;28;20029;-69
2022/12/11 02:05:03;;;;;;;33.80;18.52;;;2.60;99.90;;;;;;5051524;28;20040;-70
2022/12/11 02:07:35;;;;;;;38.65;19.63;;;2.60;99.90;;;;;;5051511;28;20058;-69
2022/12/11 02:10:01;;;;;;;37.40;18.63;;;2.50;99.90;;;;;;5051782;28;20104;-69
2022/12/11 02:12:41;;;;;;;34.20;18.00;;;2.60;99.90;;;;;;5051679;28;20111;-70
2022/12/11 02:15:34;;;;;;;31.17;17.10;;;2.60;99.90;;;;;;5050903;28;20021;-69
2022/12/11 02:18:28;;;;;;;37.92;17.92;;;2.50;99.90;;;;;;5052097;28;20086;-69
2022/12/11 02:20:57;;;;;;;33.65;17.45;;;2.50;99.90;;;;;;5051858;28;20021;-69
2022/12/11 02:23:54;;;;;;;33.20;18.88;;;2.50;99.90;;;;;;5051212;28;20025;-70
2022/12/11 02:26:48;;;;;;;35.60;18.08;;;2.50;99.90;;;;;;5051211;28;20060;-70
2022/12/11 02:29:34;;;;;;;36.28;19.45;;;2.50;99.90;;;;;;5051521;28;20033;-69
2022/12/11 02:32:03;;;;;;;35.83;18.95;;;2.50;99.90;;;;;;5051582;28;20128;-69
2022/12/11 02:34:53;;;;;;;35.00;17.52;;;2.50;99.90;;;;;;5050938;28;20054;-69
2022/12/11 02:37:22;;;;;;;36.30;18.25;;;2.50;99.90;;;;;;5050956;28;20072;-70
2022/12/11 02:39:50;;;;;;;32.22;17.95;;;2.50;99.90;;;;;;5051534;28;20036;-68
2022/12/11 02:42:18;;;;;;;37.35;18.02;;;2.50;99.90;;;;;;5054787;28;20108;-69
2022/12/11 02:44:47;;;;;;;33.53;17.38;;;2.50;99.90;;;;;;5054734;28;20024;-69
2022/12/11 02:47:15;;;;;;;30.52;16.55;;;2.50;99.90;;;;;;5055292;28;20056;-69
2022/12/11 02:49:44;;;;;;;31.70;16.85;;;2.50;99.90;;;;;;5054885;28;20095;-70
2022/12/11 02:52:13;;;;;;;31.50;16.50;;;2.50;99.90;;;;;;5054867;28;20061;-69
2022/12/11 02:54:40;;;;;;;31.35;17.15;;;2.50;99.90;;;;;;5054512;28;20083;-69
2022/12/11 02:57:18;;;;;;;27.92;15.57;;;2.50;99.90;;;;;;5054844;28;20025;-69
2022/12/11 02:59:45;;;;;;;31.25;16.30;;;2.50;99.90;;;;;;5054529;28;20029;-69
2022/12/11 03:02:12;;;;;;;30.58;15.50;;;2.50;99.90;;;;;;5054683;28;20029;-69
2022/12/11 03:04:38;;;;;;;30.25;15.90;;;2.50;99.90;;;;;;5054376;28;20025;-69
2022/12/11 03:07:11;;;;;;;31.70;16.25;;;2.40;99.90;;;;;;5055058;28;20025;-69
2022/12/11 03:09:44;;;;;;;32.42;15.85;;;2.40;99.90;;;;;;5054057;28;20033;-69
2022/12/11 03:12:13;;;;;;;27.38;15.25;;;2.40;99.90;;;;;;5054098;28;20041;-69
2022/12/11 03:14:40;;;;;;;27.42;14.43;;;2.40;99.90;;;;;;5053848;28;20033;-69
2022/12/11 03:17:13;;;;;;;27.73;14.50;;;2.40;99.90;;;;;;5054373;28;20029;-69
2022/12/11 03:19:40;;;;;;;25.95;14.13;;;2.40;99.90;;;;;;5053339;28;20100;-69
2022/12/11 03:22:18;;;;;;;27.17;14.32;;;2.40;99.90;;;;;;5054278;28;20060;-69
2022/12/11 03:24:50;;;;;;;30.83;14.90;;;2.40;99.90;;;;;;5053748;28;20025;-69
2022/12/11 03:27:50;;;;;;;27.15;14.50;;;2.30;99.90;;;;;;5054450;28;20047;-69
2022/12/11 03:30:18;;;;;;;24.23;13.20;;;2.30;99.70;;;;;;5054360;28;20040;-70
2022/12/11 03:32:57;;;;;;;25.92;13.68;;;2.30;99.80;;;;;;5053559;28;20086;-69
2022/12/11 03:35:34;;;;;;;28.00;14.05;;;2.30;99.20;;;;;;5053985;28;20063;-71
2022/12/11 03:38:04;;;;;;;31.15;15.45;;;2.30;99.30;;;;;;5054047;28;20048;-69
2022/12/11 03:40:32;;;;;;;28.60;14.68;;;2.30;99.40;;;;;;5053452;28;20115;-70
2022/12/11 03:42:59;;;;;;;27.20;14.90;;;2.30;99.50;;;;;;5053905;28;20112;-69
2022/12/11 03:45:26;;;;;;;29.55;15.45;;;2.30;99.80;;;;;;5053616;28;20064;-71
2022/12/11 03:47:53;;;;;;;31.20;14.90;;;2.30;99.80;;;;;;5053747;28;20369;-69
2022/12/11 03:50:21;;;;;;;31.73;15.15;;;2.30;99.60;;;;;;5053887;28;20025;-70
2022/12/11 03:52:48;;;;;;;28.17;14.50;;;2.30;99.70;;;;;;5052248;28;20086;-70
2022/12/11 03:55:16;;;;;;;27.50;14.63;;;2.30;99.50;;;;;;5053954;28;20028;-69
2022/12/11 03:57:42;;;;;;;27.65;15.10;;;2.30;99.20;;;;;;5053528;28;20036;-70
2022/12/11 04:00:11;;;;;;;27.98;15.75;;;2.30;99.30;;;;;;5053339;28;20099;-69
2022/12/11 04:02:37;;;;;;;29.58;15.48;;;2.30;99.30;;;;;;5053269;28;20047;-71
2022/12/11 04:05:02;;;;;;;29.75;15.20;;;2.20;99.40;;;;;;5053592;28;20025;-70
2022/12/11 04:07:30;;;;;;;30.83;15.80;;;2.30;99.40;;;;;;5052844;28;20381;-70
2022/12/11 04:09:55;;;;;;;28.92;14.98;;;2.30;99.70;;;;;;5052299;28;20043;-70
2022/12/11 04:12:21;;;;;;;28.05;14.82;;;2.30;99.90;;;;;;5053484;28;20358;-70
2022/12/11 04:15:02;;;;;;;31.23;16.42;;;2.30;99.90;;;;;;5053009;28;20145;-70
2022/12/11 04:26:06;;;;;;;31.98;15.63;;;2.20;99.90;;;;;;5053371;28;20387;-70
2022/12/11 04:28:31;;;;;;;28.92;15.57;;;2.20;99.90;;;;;;5052815;28;20025;-70
2022/12/11 04:30:57;;;;;;;29.60;15.68;;;2.10;99.90;;;;;;5053051;28;20029;-69
2022/12/11 04:33:23;;;;;;;28.13;15.45;;;2.10;99.90;;;;;;5053206;28;20044;-69
2022/12/11 04:35:48;;;;;;;30.10;15.88;;;2.00;99.90;;;;;;5053905;28;20052;-69
2022/12/11 04:38:14;;;;;;;28.10;15.57;;;2.00;99.90;;;;;;5053049;28;20074;-69
2022/12/11 04:40:39;;;;;;;28.92;15.50;;;2.00;99.90;;;;;;5052416;28;20036;-70
2022/12/11 04:43:05;;;;;;;28.67;16.65;;;1.90;99.90;;;;;;5052671;28;20025;-70
2022/12/11 04:45:31;;;;;;;29.40;16.98;;;1.90;99.90;;;;;;5051969;28;20032;-70
2022/12/11 04:47:56;;;;;;;28.15;16.02;;;1.90;99.90;;;;;;5052588;28;20029;-70
2022/12/11 04:50:22;;;;;;;29.98;16.48;;;1.90;99.90;;;;;;5052386;28;20379;-69
2022/12/11 04:52:48;;;;;;;30.25;17.17;;;1.90;99.90;;;;;;5051934;28;20021;-69
2022/12/11 04:55:13;;;;;;;30.35;16.60;;;1.80;99.90;;;;;;5052558;28;20355;-69
2022/12/11 04:57:39;;;;;;;33.25;16.70;;;1.80;99.90;;;;;;5052084;28;20033;-69
2022/12/11 05:00:07;;;;;;;29.95;15.52;;;1.70;99.90;;;;;;5052404;28;20036;-69
2022/12/11 05:02:37;;;;;;;30.83;16.17;;;1.70;99.90;;;;;;5051787;28;20091;-69
2022/12/11 05:05:04;;;;;;;29.33;16.05;;;1.80;99.90;;;;;;5051909;28;20432;-69
2022/12/11 05:07:30;;;;;;;28.98;15.90;;;1.70;99.90;;;;;;5051939;28;20025;-71
2022/12/11 05:09:56;;;;;;;23.80;14.35;;;1.80;99.90;;;;;;5051787;28;20029;-69
2022/12/11 05:12:22;;;;;;;26.95;14.77;;;1.80;99.90;;;;;;5052226;28;20028;-68
2022/12/11 05:14:51;;;;;;;26.40;13.57;;;1.80;99.90;;;;;;5051692;28;20139;-69
2022/12/11 05:17:17;;;;;;;25.80;14.98;;;1.70;99.90;;;;;;5051957;28;20052;-68
2022/12/11 05:19:43;;;;;;;29.30;16.33;;;1.70;99.90;;;;;;5051638;28;20110;-69
2022/12/11 05:22:08;;;;;;;26.35;14.68;;;1.70;99.90;;;;;;5051780;28;20462;-69
2022/12/11 05:24:34;;;;;;;25.58;15.00;;;1.70;99.90;;;;;;5051597;28;20079;-68
2022/12/11 05:26:59;;;;;;;28.98;16.55;;;1.70;99.90;;;;;;5050723;28;20036;-68
2022/12/11 05:29:25;;;;;;;25.58;15.32;;;1.60;99.90;;;;;;5052038;28;20025;-69
2022/12/11 05:31:51;;;;;;;27.45;15.07;;;1.60;99.90;;;;;;5050249;28;20037;-69
2022/12/11 05:34:16;;;;;;;27.63;16.17;;;1.50;99.90;;;;;;5050943;28;20052;-70
2022/12/11 05:36:42;;;;;;;27.67;15.68;;;1.50;99.90;;;;;;5051711;28;20156;-71
2022/12/11 05:39:08;;;;;;;23.83;15.05;;;1.50;99.90;;;;;;5052243;28;20036;-70
2022/12/11 05:41:34;;;;;;;25.98;14.85;;;1.50;99.90;;;;;;5051668;28;20033;-70
2022/12/11 05:43:59;;;;;;;25.45;15.07;;;1.40;99.90;;;;;;5052001;28;20025;-69
2022/12/11 05:46:27;;;;;;;28.40;14.85;;;1.40;99.90;;;;;;5052003;28;20021;-69
2022/12/11 05:48:55;;;;;;;25.98;14.50;;;1.40;99.90;;;;;;5051551;28;20478;-70
2022/12/11 05:51:21;;;;;;;25.25;14.77;;;1.40;99.90;;;;;;5051762;28;20441;-69
2022/12/11 05:53:49;;;;;;;26.25;15.55;;;1.40;99.90;;;;;;5051564;28;20104;-69
2022/12/11 05:56:24;;;;;;;26.77;15.02;;;1.30;99.90;;;;;;5051784;28;20025;-70
2022/12/11 05:58:50;;;;;;;27.20;16.13;;;1.30;99.90;;;;;;5051279;28;20025;-70
2022/12/11 06:01:21;;;;;;;26.42;15.07;;;1.30;99.90;;;;;;5052045;28;20061;-70
2022/12/11 06:03:47;;;;;;;28.13;16.20;;;1.30;99.90;;;;;;5051981;28;20029;-70
2022/12/11 06:06:14;;;;;;;28.42;15.32;;;1.30;99.90;;;;;;5052144;28;20032;-70
2022/12/11 06:08:39;;;;;;;25.48;15.32;;;1.30;99.90;;;;;;5051598;28;20029;-70
2022/12/11 06:11:06;;;;;;;27.60;15.40;;;1.30;99.90;;;;;;5052016;28;20484;-70
2022/12/11 06:13:32;;;;;;;26.45;14.18;;;1.40;99.90;;;;;;5051992;28;20112;-69
2022/12/11 06:16:06;;;;;;;24.02;14.23;;;1.30;99.90;;;;;;5052837;28;20029;-69
2022/12/11 06:18:35;;;;;;;26.80;14.43;;;1.30;99.90;;;;;;5055637;28;20025;-69
2022/12/11 06:21:01;;;;;;;23.45;14.23;;;1.30;99.90;;;;;;5055695;28;20033;-69
2022/12/11 06:23:26;;;;;;;25.00;14.65;;;1.40;99.90;;;;;;5055687;28;20037;-69
2022/12/11 06:25:52;;;;;;;24.92;13.80;;;1.40;99.90;;;;;;5055246;28;20025;-69
2022/12/11 06:28:18;;;;;;;20.42;12.50;;;1.40;99.90;;;;;;5055771;28;20021;-69
2022/12/11 06:30:43;;;;;;;23.65;12.90;;;1.40;99.90;;;;;;5055256;28;20040;-69
2022/12/11 06:33:09;;;;;;;23.90;13.50;;;1.40;99.90;;;;;;5055576;28;20029;-69
2022/12/11 06:35:35;;;;;;;21.25;12.18;;;1.40;99.90;;;;;;5055195;28;20032;-69
2022/12/11 06:38:01;;;;;;;19.92;11.90;;;1.50;99.90;;;;;;5055265;28;20071;-69
2022/12/11 06:40:26;;;;;;;20.15;11.60;;;1.50;99.90;;;;;;5055395;28;20037;-69
2022/12/11 06:42:53;;;;;;;17.73;11.63;;;1.50;99.90;;;;;;5053245;28;20053;-69
2022/12/11 06:45:19;;;;;;;19.90;11.70;;;1.50;99.90;;;;;;5055202;28;20070;-68
2022/12/11 06:47:45;;;;;;;19.17;11.48;;;1.50;99.90;;;;;;5054505;28;20030;-69
2022/12/11 06:50:11;;;;;;;20.58;12.38;;;1.60;99.90;;;;;;5055032;28;20033;-69
2022/12/11 06:52:37;;;;;;;19.48;11.60;;;1.60;99.90;;;;;;5055065;28;20532;-69
2022/12/11 06:55:03;;;;;;;17.45;10.75;;;1.60;99.90;;;;;;5055094;28;20021;-68
2022/12/11 06:57:28;;;;;;;17.88;11.10;;;1.60;99.90;;;;;;5055013;28;20029;-70
2022/12/11 06:59:54;;;;;;;16.77;11.30;;;1.60;99.90;;;;;;5054498;28;20029;-69
2022/12/11 07:02:20;;;;;;;17.33;10.77;;;1.60;99.90;;;;;;5054703;28;20068;-69
2022/12/11 07:04:45;;;;;;;17.02;10.65;;;1.70;99.90;;;;;;5054048;28;20108;-69
2022/12/11 07:07:11;;;;;;;18.20;11.23;;;1.60;99.90;;;;;;5054566;28;20047;-69
2022/12/11 07:09:39;;;;;;;17.40;10.35;;;1.60;99.90;;;;;;5054685;28;20078;-69
2022/12/11 07:12:06;;;;;;;18.02;10.30;;;1.60;99.90;;;;;;5054654;28;20151;-70
2022/12/11 07:14:32;;;;;;;16.67;9.88;;;1.60;99.90;;;;;;5054385;28;20091;-70
2022/12/11 07:16:58;;;;;;;16.48;10.57;;;1.60;99.90;;;;;;5053981;28;20017;-70
2022/12/11 07:19:24;;;;;;;16.75;10.45;;;1.60;99.90;;;;;;5053891;28;20028;-70
2022/12/11 07:21:50;;;;;;;18.58;11.07;;;1.60;99.90;;;;;;5053900;28;20025;-69
2022/12/11 07:24:16;;;;;;;17.30;10.15;;;1.60;99.90;;;;;;5054665;28;20104;-68
2022/12/11 07:26:41;;;;;;;18.98;11.35;;;1.60;99.90;;;;;;5053595;28;20064;-69
2022/12/11 07:29:07;;;;;;;17.83;11.23;;;1.60;99.90;;;;;;5054440;28;20021;-69
2022/12/11 07:31:33;;;;;;;18.13;11.75;;;1.60;99.90;;;;;;5053946;28;20036;-69
2022/12/11 07:34:02;;;;;;;18.15;11.25;;;1.60;99.90;;;;;;5054081;28;20044;-70
2022/12/11 07:36:29;;;;;;;17.77;10.65;;;1.60;99.90;;;;;;5053947;28;20049;-68
2022/12/11 07:38:55;;;;;;;16.77;9.98;;;1.60;99.90;;;;;;5053829;28;20104;-69
2022/12/11 07:41:22;;;;;;;18.10;10.93;;;1.60;99.90;;;;;;5054200;28;20033;-68
2022/12/11 07:43:48;;;;;;;18.17;10.70;;;1.60;99.90;;;;;;5054020;28;20066;-69
2022/12/11 07:46:20;;;;;;;19.20;11.45;;;1.60;99.90;;;;;;5053716;28;20017;-69
2022/12/11 07:48:46;;;;;;;18.50;10.90;;;1.60;99.90;;;;;;5053813;28;20032;-70
2022/12/11 07:51:25;;;;;;;16.50;10.35;;;1.60;99.90;;;;;;5053977;28;20064;-70
2022/12/11 07:53:53;;;;;;;17.33;10.55;;;1.60;99.90;;;;;;5053739;28;20036;-71
2022/12/11 07:56:18;;;;;;;16.00;10.70;;;1.60;99.90;;;;;;5053923;28;20034;-70
2022/12/11 07:58:44;;;;;;;17.40;10.80;;;1.50;99.90;;;;;;5053232;28;20070;-69
2022/12/11 08:01:17;;;;;;;17.98;10.57;;;1.60;99.90;;;;;;5053625;28;20040;-69
2022/12/11 08:03:43;;;;;;;16.23;10.65;;;1.60;99.90;;;;;;5053563;28;20025;-71
2022/12/11 08:06:09;;;;;;;17.60;11.05;;;1.60;99.50;;;;;;5053798;28;20025;-69
2022/12/11 08:08:36;;;;;;;16.45;10.48;;;1.60;99.80;;;;;;5053812;28;20381;-69
2022/12/11 08:11:04;;;;;;;17.83;10.35;;;1.60;99.90;;;;;;5053264;28;20109;-70
2022/12/11 08:13:30;;;;;;;16.25;10.23;;;1.60;99.90;;;;;;5053563;28;20032;-69
2022/12/11 08:15:56;;;;;;;18.38;10.93;;;1.70;99.60;;;;;;5053185;28;20029;-69
2022/12/11 08:18:22;;;;;;;15.88;10.45;;;1.70;99.30;;;;;;5053517;28;20044;-69
2022/12/11 08:20:47;;;;;;;16.52;10.40;;;1.70;99.30;;;;;;5051573;28;20431;-69
2022/12/11 08:23:13;;;;;;;13.98;9.35;;;1.80;99.50;;;;;;5053088;28;20028;-70
2022/12/11 08:25:38;;;;;;;17.00;9.80;;;1.80;99.10;;;;;;5052891;28;20029;-69
2022/12/11 08:28:04;;;;;;;15.10;9.45;;;1.80;98.70;;;;;;5052338;28;20025;-70
2022/12/11 08:30:30;;;;;;;15.15;9.35;;;1.80;98.30;;;;;;5052834;28;20056;-69
2022/12/11 08:32:56;;;;;;;15.70;9.95;;;1.80;97.80;;;;;;5052555;28;20029;-70
2022/12/11 08:35:22;;;;;;;14.15;9.05;;;1.80;98.30;;;;;;5052872;28;20128;-70
2022/12/11 08:37:47;;;;;;;14.15;9.48;;;1.80;97.80;;;;;;5051924;28;20053;-71
2022/12/11 08:40:13;;;;;;;15.68;9.55;;;1.90;97.00;;;;;;5052559;28;20162;-70
2022/12/11 08:42:39;;;;;;;14.68;9.18;;;1.80;97.50;;;;;;5052786;28;20029;-69
2022/12/11 08:45:05;;;;;;;14.18;8.98;;;1.90;97.90;;;;;;5052436;28;20114;-70
2022/12/11 08:47:31;;;;;;;13.25;8.95;;;1.90;97.50;;;;;;5052616;28;20029;-69
2022/12/11 08:49:57;;;;;;;14.15;8.52;;;1.90;96.10;;;;;;5051756;28;20023;-69
2022/12/11 08:52:22;;;;;;;13.05;8.90;;;1.90;96.10;;;;;;5052558;28;20094;-70
2022/12/11 08:54:48;;;;;;;14.68;8.80;;;1.90;95.70;;;;;;5052084;28;20025;-69
2022/12/11 08:57:14;;;;;;;13.88;8.65;;;1.90;95.60;;;;;;5052190;28;20021;-70
2022/12/11 08:59:39;;;;;;;14.15;8.07;;;2.00;95.20;;;;;;5052334;28;20106;-71
2022/12/11 09:02:05;;;;;;;14.25;8.40;;;2.00;95.30;;;;;;5052149;28;20035;-70
2022/12/11 09:04:31;;;;;;;14.13;8.65;;;2.00;94.70;;;;;;5052165;28;20457;-69
2022/12/11 09:06:56;;;;;;;12.95;8.48;;;2.00;94.40;;;;;;5052164;28;20029;-70
2022/12/11 09:09:22;;;;;;;13.70;8.75;;;2.10;94.90;;;;;;5052501;28;20052;-70
2022/12/11 09:11:48;;;;;;;13.30;9.07;;;2.10;95.30;;;;;;5052244;28;20063;-71
2022/12/11 09:14:15;;;;;;;12.82;8.93;;;2.20;94.40;;;;;;5052428;28;20115;-70
2022/12/11 09:16:41;;;;;;;12.27;8.73;;;2.20;94.20;;;;;;5052617;28;20474;-69
2022/12/11 09:19:09;;;;;;;14.45;8.98;;;2.10;93.70;;;;;;5052689;28;20062;-70
2022/12/11 09:21:35;;;;;;;12.23;7.93;;;2.20;93.80;;;;;;5052253;28;20089;-69
2022/12/11 09:24:01;;;;;;;13.70;8.38;;;2.10;92.70;;;;;;5051687;28;20017;-69
2022/12/11 09:26:28;;;;;;;11.75;7.53;;;2.10;92.80;;;;;;5051903;28;20183;-69
2022/12/11 09:28:55;;;;;;;14.70;8.52;;;2.00;92.70;;;;;;5051340;28;20078;-69
2022/12/11 09:31:29;;;;;;;15.60;9.10;;;2.00;93.20;;;;;;5051919;28;20178;-69
2022/12/11 09:33:58;;;;;;;13.70;8.80;;;2.00;94.00;;;;;;5051853;28;20028;-69
2022/12/11 09:36:24;;;;;;;12.48;8.23;;;2.00;93.50;;;;;;5051658;28;20446;-70
2022/12/11 09:38:51;;;;;;;12.88;8.48;;;1.90;93.50;;;;;;5051604;28;20043;-72
2022/12/11 09:41:16;;;;;;;14.10;8.73;;;1.90;93.30;;;;;;5051609;28;20491;-71
2022/12/11 09:43:58;;;;;;;12.85;8.80;;;1.90;93.40;;;;;;5051856;28;20029;-70
2022/12/11 09:46:25;;;;;;;15.43;8.98;;;2.00;94.00;;;;;;5051940;28;20022;-70
2022/12/11 09:48:52;;;;;;;13.57;8.27;;;2.00;94.20;;;;;;5051270;28;20108;-71
2022/12/11 09:51:38;;;;;;;15.43;9.43;;;2.10;93.40;;;;;;5055641;28;20025;-69
2022/12/11 09:54:04;;;;;;;13.75;8.38;;;2.10;93.60;;;;;;5054273;28;20041;-69
2022/12/11 09:56:41;;;;;;;12.32;8.68;;;2.20;93.50;;;;;;5055229;28;20037;-68
2022/12/11 09:59:13;;;;;;;12.20;8.30;;;2.30;93.60;;;;;;5055184;28;20489;-70
2022/12/11 10:01:59;;;;;;;12.20;7.53;;;2.40;92.70;;;;;;5055628;28;20033;-69
2022/12/11 10:04:34;;;;;;;11.30;7.85;;;2.60;91.80;;;;;;5055829;28;20116;-69
2022/12/11 10:07:10;;;;;;;12.27;7.32;;;2.70;91.20;;;;;;5055305;28;20107;-69
2022/12/11 10:09:46;;;;;;;10.13;6.80;;;2.90;90.20;;;;;;5055643;28;20040;-69
2022/12/11 10:12:18;;;;;;;10.38;6.93;;;2.90;86.90;;;;;;5054926;28;20032;-70
2022/12/11 10:15:02;;;;;;;10.57;6.70;;;2.90;86.30;;;;;;5055593;28;20029;-69
2022/12/11 10:17:31;;;;;;;8.98;6.28;;;2.90;86.50;;;;;;5055422;28;20027;-69
2022/12/11 10:20:21;;;;;;;8.77;6.20;;;3.10;86.10;;;;;;5055041;28;20478;-69
2022/12/11 10:22:49;;;;;;;9.52;6.18;;;3.00;83.40;;;;;;5055511;28;20115;-69
2022/12/11 10:25:23;;;;;;;9.50;6.00;;;3.00;82.80;;;;;;5054615;28;20025;-69
2022/12/11 10:27:49;;;;;;;8.70;5.97;;;3.10;83.10;;;;;;5054199;28;20040;-69
2022/12/11 10:30:16;;;;;;;12.15;6.30;;;3.00;81.90;;;;;;5054922;28;20021;-70
2022/12/11 10:32:59;;;;;;;9.43;6.82;;;2.90;81.30;;;;;;5055145;28;20025;-69
2022/12/11 10:35:40;;;;;;;9.95;6.25;;;2.90;82.60;;;;;;5055337;28;20029;-69
2022/12/11 10:38:24;;;;;;;10.57;6.93;;;2.90;82.40;;;;;;5054931;28;20032;-69
2022/12/11 10:41:11;;;;;;;11.95;7.03;;;2.90;81.90;;;;;;5055051;28;20032;-69
2022/12/11 10:43:39;;;;;;;11.50;6.93;;;2.90;81.90;;;;;;5055041;28;20147;-69
2022/12/11 10:46:13;;;;;;;11.60;7.38;;;2.90;82.40;;;;;;5054680;28;20033;-69
2022/12/11 10:49:05;;;;;;;9.38;6.30;;;2.90;82.10;;;;;;5055186;28;20033;-69
2022/12/11 10:51:30;;;;;;;9.95;6.70;;;2.90;81.90;;;;;;5053884;28;20506;-69
2022/12/11 10:54:05;;;;;;;8.20;6.00;;;2.80;81.40;;;;;;5053336;28;20064;-70
2022/12/11 10:56:32;;;;;;;11.05;6.47;;;2.70;81.20;;;;;;5054816;28;20032;-68
2022/12/11 10:58:59;;;;;;;11.00;7.00;;;2.60;81.40;;;;;;5054250;28;20025;-70
2022/12/11 11:01:28;;;;;;;11.90;6.55;;;2.50;82.30;;;;;;5053937;28;20046;-69
2022/12/11 11:04:05;;;;;;;10.70;6.65;;;2.50;81.80;;;;;;5055083;28;20025;-69
2022/12/11 11:06:31;;;;;;;9.50;6.68;;;2.40;81.90;;;;;;5054953;28;20025;-68
2022/12/11 11:08:59;;;;;;;10.68;6.90;;;2.40;82.70;;;;;;5054251;28;20032;-71
2022/12/11 11:11:28;;;;;;;11.65;7.50;;;2.40;83.00;;;;;;5054764;28;20037;-70
2022/12/11 11:14:17;;;;;;;10.70;7.43;;;2.40;83.90;;;;;;5054702;28;20096;-69
2022/12/11 11:16:47;;;;;;;12.57;7.43;;;2.50;83.80;;;;;;5053487;28;20033;-69
2022/12/11 11:19:37;;;;;;;12.20;8.35;;;2.40;82.90;;;;;;5053822;28;20438;-69
2022/12/11 11:22:21;;;;;;;12.40;8.30;;;2.40;83.70;;;;;;5050777;28;20048;-70
2022/12/11 11:24:54;;;;;;;11.60;7.43;;;2.40;84.70;;;;;;5053842;28;20028;-70
2022/12/11 11:27:39;;;;;;;11.40;7.75;;;2.50;85.20;;;;;;5053835;28;20131;-70
2022/12/11 11:30:17;;;;;;;11.57;7.78;;;2.50;84.40;;;;;;5053660;28;20048;-70
2022/12/11 11:32:43;;;;;;;11.90;7.57;;;2.50;83.40;;;;;;5052748;28;20036;-69
2022/12/11 11:35:11;;;;;;;12.82;7.43;;;2.50;84.10;;;;;;5053672;28;20029;-70
2022/12/11 11:37:39;;;;;;;12.32;7.82;;;2.60;84.40;;;;;;5053635;28;20053;-69
2022/12/11 11:40:12;;;;;;;14.05;8.57;;;2.60;84.30;;;;;;5053602;28;20021;-70
2022/12/11 11:42:43;;;;;;;12.75;8.10;;;2.60;83.90;;;;;;5053612;28;20386;-70
2022/12/11 11:45:18;;;;;;;11.20;7.45;;;2.60;83.80;;;;;;5053485;28;20021;-70
2022/12/11 11:48:01;;;;;;;11.23;6.82;;;2.60;83.30;;;;;;5053776;28;20025;-69
2022/12/11 11:50:34;;;;;;;10.95;6.70;;;2.70;81.60;;;;;;5053650;28;20138;-69
2022/12/11 11:53:10;;;;;;;10.27;5.90;;;2.60;81.20;;;;;;5053416;28;20029;-72
2022/12/11 11:56:06;;;;;;;10.50;6.35;;;2.50;79.40;;;;;;5053503;28;20021;-70
2022/12/11 11:58:39;;;;;;;9.63;5.70;;;2.40;79.90;;;;;;5051302;28;20037;-69
2022/12/11 12:01:14;;;;;;;8.85;6.25;;;2.30;80.30;;;;;;5053282;28;20047;-70
2022/12/11 12:03:40;;;;;;;9.82;6.35;;;2.30;80.70;;;;;;5053497;28;20025;-70
2022/12/11 12:06:37;;;;;;;10.57;6.30;;;2.30;81.10;;;;;;5052474;28;20025;-70
2022/12/11 12:09:15;;;;;;;9.80;5.88;;;2.30;81.10;;;;;;5052698;28;20056;-72
2022/12/11 12:11:46;;;;;;;9.77;5.95;;;2.30;81.00;;;;;;5053379;28;20045;-69
2022/12/11 12:14:24;;;;;;;;;;;2.40;80.50;;;;;;5052307;28;20033;-70
2022/12/11 12:17:07;;;;;;;8.65;5.43;;;2.40;80.50;;;;;;5053269;28;20054;-70
2022/12/11 12:19:58;;;;;;;9.68;6.07;;;2.30;80.00;;;;;;5053313;28;20017;-69
2022/12/11 12:22:42;;;;;;;8.65;5.88;;;2.30;79.80;;;;;;5052809;28;20068;-69
2022/12/11 12:25:25;;;;;;;8.30;5.82;;;2.30;80.30;;;;;;5052906;28;20064;-70
2022/12/11 12:28:07;;;;;;;9.57;5.65;;;2.20;79.50;;;;;;5053354;28;20048;-69
2022/12/11 12:30:39;;;;;;;;;;;2.10;79.30;;;;;;5053636;28;20096;-70
2022/12/11 12:33:21;;;;;;;13.68;6.00;;;2.10;80.00;;;;;;5051503;28;19913;-70
2022/12/11 12:36:02;;;;;;;7.47;5.35;;;2.00;80.20;;;;;;5053207;28;20025;-69
2022/12/11 12:38:40;;;;;;;10.35;6.30;;;2.00;79.80;;;;;;5053192;28;20029;-70
2022/12/11 12:41:21;;;;;;;9.98;6.55;;;2.00;80.50;;;;;;5052412;28;20056;-71
2022/12/11 12:44:02;;;;;;;11.20;5.65;;;2.00;80.30;;;;;;5053169;28;20033;-70
2022/12/11 12:46:36;;;;;;;10.48;6.25;;;2.00;80.50;;;;;;5053005;28;20029;-70
2022/12/11 12:49:03;;;;;;;12.40;6.82;;;1.90;80.20;;;;;;5052858;28;20108;-70
2022/12/11 12:51:29;;;;;;;9.60;5.68;;;1.90;80.30;;;;;;5052375;28;20053;-70
2022/12/11 12:53:59;;;;;;;13.40;6.95;;;1.90;79.80;;;;;;5052724;28;20040;-70
2022/12/11 12:56:28;;;;;;;10.05;6.25;;;1.80;79.80;;;;;;5051115;28;20025;-70
2022/12/11 12:58:53;;;;;;;9.18;6.10;;;1.80;79.60;;;;;;5052447;28;20025;-70
2022/12/11 13:01:21;;;;;;;10.77;5.85;;;1.80;79.90;;;;;;5052038;28;20108;-70
2022/12/11 13:04:04;;;;;;;9.07;6.07;;;1.80;79.80;;;;;;5052503;28;20078;-69
2022/12/11 13:06:56;;;;;;;10.45;6.00;;;1.80;79.30;;;;;;5051956;28;20028;-69